Time;durP1;ratioP1;P1;durP2;ratioP2;P2;SDS_P1;SDS_P2;PMS_P1;PMS_P2;Temp;Humidity;BMP_temperature;BMP_pressure;BME280_temperature;BME280_humidity;BME280_pressure;Samples;Min_cycle;Max_cycle;Signal;HPM_P1;HPM_P2
2022/02/24 00:02:10;;;;;;;6.03;1.77;;;8.10;99.90;;;;;;5096127;28;20204;-47
2022/02/24 00:04:37;;;;;;;5.10;1.30;;;8.10;99.90;;;;;;5096612;28;20201;-46
2022/02/24 00:07:04;;;;;;;4.10;1.57;;;8.10;99.90;;;;;;5080834;28;20198;-44
2022/02/24 00:09:32;;;;;;;4.13;1.37;;;8.10;99.90;;;;;;5100825;28;20217;-48
2022/02/24 00:12:02;;;;;;;6.33;1.50;;;8.10;99.90;;;;;;5101101;28;20201;-44
2022/02/24 00:14:29;;;;;;;5.07;1.80;;;8.20;99.90;;;;;;5104552;28;20247;-48
2022/02/24 00:16:55;;;;;;;9.80;1.83;;;8.20;99.90;;;;;;5100131;28;20197;-45
2022/02/24 00:19:23;;;;;;;4.00;1.60;;;8.20;99.90;;;;;;5104354;28;20217;-46
2022/02/24 00:21:49;;;;;;;4.57;1.43;;;8.20;99.90;;;;;;5079389;28;20445;-47
2022/02/24 00:24:16;;;;;;;3.33;1.50;;;8.20;99.90;;;;;;5098859;28;20201;-45
2022/02/24 00:26:43;;;;;;;4.73;1.80;;;8.20;99.90;;;;;;5095850;28;20267;-48
2022/02/24 00:29:11;;;;;;;4.93;1.80;;;8.20;99.90;;;;;;5096989;28;20215;-49
2022/02/24 00:31:38;;;;;;;4.30;1.23;;;8.20;99.90;;;;;;5095695;28;20206;-47
2022/02/24 00:34:05;;;;;;;5.10;1.40;;;8.20;99.90;;;;;;5095420;28;20468;-46
2022/02/24 00:36:32;;;;;;;4.63;1.70;;;8.30;99.90;;;;;;5100748;28;20610;-50
2022/02/24 00:38:58;;;;;;;4.20;1.63;;;8.20;99.90;;;;;;5090093;28;20961;-47
2022/02/24 00:41:25;;;;;;;4.27;1.63;;;8.20;99.90;;;;;;5103815;28;20221;-48
2022/02/24 00:43:52;;;;;;;7.13;2.07;;;8.20;99.90;;;;;;5099457;28;20189;-45
2022/02/24 00:46:20;;;;;;;6.53;1.90;;;8.20;99.90;;;;;;5103702;28;20193;-45
2022/02/24 00:48:47;;;;;;;6.07;1.73;;;8.20;99.90;;;;;;5099860;28;20204;-45
2022/02/24 00:51:14;;;;;;;5.97;1.57;;;8.20;99.90;;;;;;5103653;28;20232;-45
2022/02/24 00:53:41;;;;;;;4.73;1.53;;;8.20;99.90;;;;;;5085799;28;20228;-46
2022/02/24 00:56:08;;;;;;;5.00;1.80;;;8.20;99.90;;;;;;5095601;28;20517;-44
2022/02/24 00:58:35;;;;;;;1.87;1.23;;;8.20;99.90;;;;;;5101981;28;20523;-47
2022/02/24 01:01:02;;;;;;;3.60;1.33;;;8.10;99.90;;;;;;5101077;28;20225;-44
2022/02/24 01:03:30;;;;;;;2.23;1.53;;;8.10;99.90;;;;;;5103415;28;20649;-45
2022/02/24 01:05:57;;;;;;;4.90;1.50;;;8.10;99.90;;;;;;5099379;28;20480;-44
2022/02/24 01:08:23;;;;;;;3.47;1.70;;;8.10;99.90;;;;;;5089117;28;20194;-44
2022/02/24 01:10:50;;;;;;;3.23;1.57;;;8.10;99.90;;;;;;5098411;28;20217;-47
2022/02/24 01:13:17;;;;;;;6.73;1.60;;;8.10;99.90;;;;;;5103196;28;20212;-46
2022/02/24 01:15:43;;;;;;;5.53;1.67;;;8.00;99.90;;;;;;5100247;28;20204;-44
2022/02/24 01:18:10;;;;;;;5.17;1.63;;;8.00;99.90;;;;;;5102180;28;20201;-45
2022/02/24 01:20:38;;;;;;;9.67;1.57;;;8.00;99.90;;;;;;5101731;28;20228;-45
2022/02/24 01:23:06;;;;;;;4.10;2.00;;;7.90;99.90;;;;;;5101254;28;20833;-49
2022/02/24 01:25:33;;;;;;;4.07;1.63;;;7.90;99.90;;;;;;5086255;28;20282;-48
2022/02/24 01:27:59;;;;;;;4.17;1.60;;;7.90;99.90;;;;;;5099552;28;20211;-45
2022/02/24 01:30:27;;;;;;;7.27;2.23;;;7.90;99.90;;;;;;5102936;28;20221;-45
2022/02/24 01:32:54;;;;;;;5.70;1.70;;;7.90;99.90;;;;;;5098908;28;20204;-46
2022/02/24 01:35:21;;;;;;;2.53;1.60;;;7.90;99.90;;;;;;5103010;28;20201;-46
2022/02/24 01:37:49;;;;;;;6.87;1.87;;;7.80;99.90;;;;;;5099047;28;20208;-44
2022/02/24 01:40:17;;;;;;;5.77;1.50;;;7.80;99.90;;;;;;5088326;28;20716;-48
2022/02/24 01:42:44;;;;;;;5.93;1.90;;;7.80;99.90;;;;;;5099733;28;20204;-45
2022/02/24 01:45:12;;;;;;;4.57;1.90;;;7.80;99.90;;;;;;5102255;28;20203;-46
2022/02/24 01:47:39;;;;;;;4.60;1.90;;;7.70;99.90;;;;;;5101038;28;20569;-44
2022/02/24 01:50:08;;;;;;;3.50;1.47;;;7.70;99.90;;;;;;5101054;28;20321;-44
2022/02/24 01:52:36;;;;;;;5.13;1.93;;;7.70;99.90;;;;;;5101954;28;20197;-44
2022/02/24 01:55:04;;;;;;;8.37;2.50;;;7.60;99.90;;;;;;5097343;28;20826;-48
2022/02/24 01:57:33;;;;;;;3.27;1.53;;;7.60;99.90;;;;;;5087056;28;20205;-49
2022/02/24 02:00:00;;;;;;;4.07;1.80;;;7.60;99.90;;;;;;5099557;28;20227;-47
2022/02/24 02:02:26;;;;;;;5.33;1.93;;;7.60;99.90;;;;;;5102772;28;20197;-47
2022/02/24 02:04:53;;;;;;;2.77;1.20;;;7.60;99.90;;;;;;5098680;28;20178;-49
2022/02/24 02:07:22;;;;;;;5.43;2.00;;;7.60;99.90;;;;;;5102801;28;20213;-45
2022/02/24 02:09:49;;;;;;;3.53;1.57;;;7.60;99.90;;;;;;5098530;28;20297;-45
2022/02/24 02:12:20;;;;;;;4.30;1.43;;;7.60;99.90;;;;;;5088055;28;20678;-48
2022/02/24 02:14:47;;;;;;;5.80;1.83;;;7.60;99.90;;;;;;5098796;28;20205;-46
2022/02/24 02:17:14;;;;;;;5.83;1.73;;;7.60;99.90;;;;;;5102391;28;20201;-46
2022/02/24 02:19:40;;;;;;;4.60;1.40;;;7.60;99.90;;;;;;5100671;28;20231;-50
2022/02/24 02:22:08;;;;;;;4.67;1.60;;;7.60;99.90;;;;;;5101052;28;20804;-44
2022/02/24 02:24:35;;;;;;;4.20;1.43;;;7.60;99.90;;;;;;5103065;28;20200;-48
2022/02/24 02:27:02;;;;;;;5.30;2.40;;;7.50;99.90;;;;;;5075485;28;20430;-45
2022/02/24 02:29:30;;;;;;;3.87;1.30;;;7.60;99.90;;;;;;5105980;28;20229;-47
2022/02/24 02:31:56;;;;;;;5.40;1.90;;;7.50;99.90;;;;;;5102850;28;20803;-48
2022/02/24 02:34:23;;;;;;;5.37;1.87;;;7.60;99.90;;;;;;5106424;28;20197;-45
2022/02/24 02:36:50;;;;;;;3.27;1.80;;;7.60;99.90;;;;;;5101915;27;20198;-46
2022/02/24 02:39:18;;;;;;;3.77;1.60;;;7.50;99.90;;;;;;5106153;28;20227;-48
2022/02/24 02:41:47;;;;;;;3.50;1.57;;;7.60;99.90;;;;;;5091801;28;20201;-49
2022/02/24 02:44:15;;;;;;;9.10;2.20;;;7.50;99.90;;;;;;5104815;28;20276;-45
2022/02/24 02:46:42;;;;;;;4.13;1.90;;;7.50;99.90;;;;;;5103279;28;20198;-50
2022/02/24 02:49:09;;;;;;;8.17;2.00;;;7.50;99.90;;;;;;5104943;28;20292;-47
2022/02/24 02:51:35;;;;;;;6.43;2.00;;;7.50;99.90;;;;;;5104842;28;20197;-49
2022/02/24 02:54:02;;;;;;;6.90;1.70;;;7.50;99.90;;;;;;5103512;28;20237;-45
2022/02/24 02:56:30;;;;;;;5.93;2.00;;;7.50;99.90;;;;;;5103194;28;20225;-46
2022/02/24 02:58:57;;;;;;;3.80;1.67;;;7.50;99.90;;;;;;5087686;27;20221;-47
2022/02/24 03:01:24;;;;;;;5.90;2.33;;;7.50;99.90;;;;;;5104385;28;20224;-45
2022/02/24 03:03:50;;;;;;;6.83;2.30;;;7.50;99.90;;;;;;5101698;28;20212;-47
2022/02/24 03:06:17;;;;;;;4.57;2.30;;;7.50;99.90;;;;;;5105537;28;20201;-48
2022/02/24 03:08:44;;;;;;;5.07;1.80;;;7.50;99.90;;;;;;5102913;27;20197;-50
2022/02/24 03:11:11;;;;;;;3.13;2.00;;;7.50;99.90;;;;;;5105086;28;20213;-45
2022/02/24 03:13:39;;;;;;;6.00;1.80;;;7.50;99.90;;;;;;5089557;28;20201;-48
2022/02/24 03:16:06;;;;;;;5.33;1.70;;;7.50;99.90;;;;;;5103476;28;20685;-48
2022/02/24 03:18:33;;;;;;;5.60;1.93;;;7.50;99.90;;;;;;5104998;28;20673;-48
2022/02/24 03:20:59;;;;;;;5.57;2.03;;;7.50;99.90;;;;;;5102282;28;20225;-45
2022/02/24 03:23:26;;;;;;;6.00;2.27;;;7.50;99.90;;;;;;5105387;28;20201;-46
2022/02/24 03:25:53;;;;;;;4.57;2.03;;;7.60;99.90;;;;;;5096023;28;20177;-48
2022/02/24 03:28:20;;;;;;;6.27;2.33;;;7.60;99.90;;;;;;5104705;28;20254;-47
2022/02/24 03:30:48;;;;;;;7.70;2.37;;;7.60;99.90;;;;;;5086953;28;20217;-44
2022/02/24 03:33:15;;;;;;;5.37;2.40;;;7.60;99.90;;;;;;5105255;28;20205;-46
2022/02/24 03:35:44;;;;;;;6.33;2.37;;;7.70;99.90;;;;;;5102459;28;20540;-49
2022/02/24 03:38:11;;;;;;;8.03;2.33;;;7.70;99.90;;;;;;5104153;28;20266;-49
2022/02/24 03:40:38;;;;;;;6.53;3.13;;;7.70;99.90;;;;;;5103186;28;20224;-46
2022/02/24 03:43:05;;;;;;;6.10;2.40;;;7.70;99.90;;;;;;5103215;28;20220;-47
2022/02/24 03:45:32;;;;;;;4.43;2.50;;;7.70;99.90;;;;;;5090020;28;20205;-51
2022/02/24 03:48:00;;;;;;;4.70;2.10;;;7.70;99.90;;;;;;5101182;28;20321;-45
2022/02/24 03:50:26;;;;;;;6.40;2.40;;;7.80;99.90;;;;;;5105017;27;20213;-46
2022/02/24 03:52:53;;;;;;;4.40;2.63;;;7.70;99.90;;;;;;5100794;28;20193;-44
2022/02/24 03:55:20;;;;;;;6.10;2.57;;;7.80;99.90;;;;;;5104390;28;20208;-44
2022/02/24 03:57:47;;;;;;;6.17;2.70;;;7.80;99.90;;;;;;5100435;28;20208;-46
2022/02/24 04:00:14;;;;;;;4.87;2.20;;;7.70;99.90;;;;;;5089778;28;20221;-45
2022/02/24 04:02:43;;;;;;;6.20;2.10;;;7.70;99.90;;;;;;5101378;28;20193;-46
2022/02/24 04:05:13;;;;;;;6.10;2.70;;;7.70;99.90;;;;;;5103740;28;20197;-46
2022/02/24 04:07:40;;;;;;;9.67;3.60;;;7.70;99.90;;;;;;5102332;28;20209;-47
2022/02/24 04:10:07;;;;;;;6.70;2.27;;;7.80;99.90;;;;;;5103022;28;20417;-45
2022/02/24 04:12:34;;;;;;;7.47;3.77;;;7.70;99.90;;;;;;5103385;28;20205;-48
2022/02/24 04:15:01;;;;;;;9.23;3.60;;;7.70;99.90;;;;;;5087404;28;20275;-50
2022/02/24 04:17:28;;;;;;;4.47;3.20;;;7.80;99.90;;;;;;5104036;28;20540;-50
2022/02/24 04:19:54;;;;;;;4.03;2.87;;;7.80;99.90;;;;;;5098433;28;20996;-45
2022/02/24 04:22:22;;;;;;;8.70;4.13;;;7.70;99.90;;;;;;5104482;28;20280;-46
2022/02/24 04:24:49;;;;;;;10.10;3.47;;;7.70;99.90;;;;;;5099222;27;20200;-50
2022/02/24 04:27:15;;;;;;;6.63;3.07;;;7.80;99.90;;;;;;5102031;28;20204;-48
2022/02/24 04:29:42;;;;;;;4.93;2.30;;;7.70;99.90;;;;;;5094552;28;20213;-47
2022/02/24 04:32:09;;;;;;;9.70;2.37;;;7.80;99.90;;;;;;5088288;28;20220;-47
2022/02/24 04:34:35;;;;;;;4.87;2.40;;;7.80;99.90;;;;;;5102696;28;20300;-49
2022/02/24 04:37:02;;;;;;;3.30;1.90;;;7.80;99.90;;;;;;5101428;28;20797;-49
2022/02/24 04:39:30;;;;;;;9.23;2.90;;;7.80;99.90;;;;;;5104102;28;20232;-49
2022/02/24 04:41:57;;;;;;;9.77;2.57;;;7.90;99.90;;;;;;5100429;28;20401;-48
2022/02/24 04:44:23;;;;;;;4.77;2.00;;;7.90;99.90;;;;;;5103929;28;20391;-46
2022/02/24 04:46:50;;;;;;;5.47;2.27;;;7.90;99.90;;;;;;5084588;28;20213;-45
2022/02/24 04:49:17;;;;;;;6.60;2.50;;;7.90;99.90;;;;;;5103646;28;20272;-45
2022/02/24 04:51:43;;;;;;;5.47;2.30;;;7.90;99.90;;;;;;5100694;28;20209;-48
2022/02/24 04:54:10;;;;;;;8.90;2.53;;;7.90;99.90;;;;;;5102893;28;20198;-46
2022/02/24 04:56:38;;;;;;;7.57;2.23;;;7.90;99.90;;;;;;5096179;28;20197;-48
2022/02/24 04:59:05;;;;;;;9.03;3.60;;;7.80;99.90;;;;;;5100973;28;20220;-47
2022/02/24 05:01:31;;;;;;;5.57;2.37;;;7.80;99.90;;;;;;5101188;28;20204;-48
2022/02/24 05:03:58;;;;;;;7.40;2.33;;;7.80;99.90;;;;;;5088772;28;20383;-46
2022/02/24 05:06:25;;;;;;;3.83;2.13;;;7.70;99.90;;;;;;5103301;28;20661;-47
2022/02/24 05:08:51;;;;;;;10.93;4.20;;;7.70;99.90;;;;;;5099270;28;20201;-46
2022/02/24 05:11:18;;;;;;;4.43;2.70;;;7.70;99.90;;;;;;5103484;27;20612;-46
2022/02/24 05:13:46;;;;;;;4.73;2.63;;;7.70;99.90;;;;;;5100162;28;20201;-46
2022/02/24 05:16:12;;;;;;;5.67;2.53;;;7.70;99.90;;;;;;5103169;28;20198;-46
2022/02/24 05:18:39;;;;;;;6.07;2.50;;;7.60;99.90;;;;;;5086686;28;20208;-47
2022/02/24 05:21:06;;;;;;;10.33;3.00;;;7.60;99.90;;;;;;5101211;28;20217;-43
2022/02/24 05:23:33;;;;;;;7.27;2.80;;;7.60;99.90;;;;;;5102475;28;20567;-46
2022/02/24 05:26:00;;;;;;;8.17;2.70;;;7.60;99.90;;;;;;5098429;28;20995;-50
2022/02/24 05:28:26;;;;;;;9.43;2.73;;;7.60;99.90;;;;;;5102773;28;20198;-46
2022/02/24 05:30:59;;;;;;;5.27;2.70;;;7.60;99.90;;;;;;5098857;28;20224;-44
2022/02/24 05:33:26;;;;;;;5.70;2.60;;;7.60;99.90;;;;;;5089008;28;20575;-47
2022/02/24 05:35:53;;;;;;;8.23;3.53;;;7.50;99.90;;;;;;5098455;28;20747;-44
2022/02/24 05:38:19;;;;;;;5.20;3.10;;;7.60;99.90;;;;;;5102905;28;20208;-47
2022/02/24 05:40:46;;;;;;;8.93;2.00;;;7.60;99.90;;;;;;5090475;28;20228;-47
2022/02/24 05:43:13;;;;;;;8.07;3.17;;;7.50;99.90;;;;;;5100142;28;20204;-46
2022/02/24 05:45:39;;;;;;;6.27;2.70;;;7.50;99.90;;;;;;5102326;28;20202;-44
2022/02/24 05:48:07;;;;;;;6.07;2.20;;;7.50;99.90;;;;;;5094651;28;20193;-47
2022/02/24 05:50:34;;;;;;;6.27;3.53;;;7.50;99.90;;;;;;5095262;28;20221;-48
2022/02/24 05:53:02;;;;;;;13.93;3.37;;;7.50;99.90;;;;;;5102179;28;20648;-44
2022/02/24 05:55:29;;;;;;;6.33;2.70;;;7.50;99.90;;;;;;5096389;28;20197;-45
2022/02/24 05:57:56;;;;;;;11.07;3.90;;;7.50;99.90;;;;;;5101969;28;20227;-45
2022/02/24 06:00:23;;;;;;;8.10;2.67;;;7.50;99.90;;;;;;5101717;28;20225;-44
2022/02/24 06:02:50;;;;;;;6.77;2.73;;;7.50;99.90;;;;;;5107180;28;20207;-48
2022/02/24 06:05:18;;;;;;;11.07;5.27;;;7.50;99.90;;;;;;5088372;28;20213;-47
2022/02/24 06:07:45;;;;;;;13.33;4.40;;;7.50;99.90;;;;;;5106349;28;20201;-44
2022/02/24 06:10:13;;;;;;;7.53;3.70;;;7.50;99.90;;;;;;5103950;28;20213;-45
2022/02/24 06:12:40;;;;;;;4.20;2.70;;;7.50;99.90;;;;;;5106386;28;20201;-47
2022/02/24 06:15:09;;;;;;;6.03;3.10;;;7.50;99.90;;;;;;5104833;28;20205;-46
2022/02/24 06:17:36;;;;;;;10.13;3.13;;;7.50;99.90;;;;;;5105271;28;20201;-45
2022/02/24 06:20:03;;;;;;;10.57;3.50;;;7.50;99.90;;;;;;5091340;28;20229;-48
2022/02/24 06:22:31;;;;;;;9.23;3.53;;;7.50;99.90;;;;;;5103517;27;20201;-44
2022/02/24 06:24:59;;;;;;;7.33;3.50;;;7.50;99.90;;;;;;5103909;28;20194;-47
2022/02/24 06:27:26;;;;;;;12.63;5.23;;;7.50;99.90;;;;;;5098884;28;20404;-46
2022/02/24 06:29:52;;;;;;;9.10;3.47;;;7.50;99.90;;;;;;5106062;28;20220;-45
2022/02/24 06:32:19;;;;;;;7.90;3.90;;;7.50;99.90;;;;;;5102283;28;20979;-45
2022/02/24 06:34:45;;;;;;;11.93;5.27;;;7.50;99.90;;;;;;5091897;28;20210;-45
2022/02/24 06:37:12;;;;;;;10.37;4.20;;;7.50;99.90;;;;;;5102817;28;21164;-45
2022/02/24 06:39:42;;;;;;;11.20;4.17;;;7.50;99.90;;;;;;5105602;28;20223;-44
2022/02/24 06:42:09;;;;;;;9.40;3.87;;;7.50;99.90;;;;;;5103999;28;20221;-48
2022/02/24 06:44:36;;;;;;;12.37;4.73;;;7.50;99.90;;;;;;5104687;28;20591;-44
2022/02/24 06:47:03;;;;;;;5.50;2.90;;;7.50;99.90;;;;;;5104866;28;20197;-48
2022/02/24 06:49:29;;;;;;;11.77;4.07;;;7.60;99.90;;;;;;5088601;28;20527;-44
2022/02/24 06:51:57;;;;;;;12.00;3.73;;;7.60;99.90;;;;;;5105677;28;20190;-44
2022/02/24 06:54:24;;;;;;;5.50;3.30;;;7.60;99.90;;;;;;5101970;28;20231;-44
2022/02/24 06:56:53;;;;;;;12.57;4.53;;;7.60;99.90;;;;;;5103667;28;20212;-46
2022/02/24 06:59:20;;;;;;;20.17;5.17;;;7.50;99.90;;;;;;5101620;28;20208;-46
2022/02/24 07:01:47;;;;;;;13.03;3.23;;;7.50;99.90;;;;;;5105700;28;20220;-46
2022/02/24 07:04:14;;;;;;;8.57;4.60;;;7.50;99.90;;;;;;5102433;28;20685;-44
2022/02/24 07:06:41;;;;;;;8.17;4.07;;;7.60;99.90;;;;;;5090523;28;20205;-44
2022/02/24 07:09:08;;;;;;;7.60;3.80;;;7.60;99.90;;;;;;5103523;28;20709;-45
2022/02/24 07:11:35;;;;;;;11.80;4.57;;;7.60;99.90;;;;;;5103540;28;20234;-46
2022/02/24 07:14:03;;;;;;;12.80;4.17;;;7.60;99.90;;;;;;5104718;28;20193;-45
2022/02/24 07:16:32;;;;;;;9.37;4.03;;;7.70;99.90;;;;;;5102454;28;20188;-46
2022/02/24 07:18:58;;;;;;;10.03;3.90;;;7.70;99.90;;;;;;5105577;28;20284;-50
2022/02/24 07:21:25;;;;;;;3.80;2.93;;;7.70;99.90;;;;;;5087024;28;21249;-43
2022/02/24 07:23:52;;;;;;;7.90;3.40;;;7.70;99.90;;;;;;5104961;28;20200;-47
2022/02/24 07:26:19;;;;;;;7.07;3.53;;;7.70;99.90;;;;;;5096406;28;20281;-46
2022/02/24 07:28:46;;;;;;;6.80;4.00;;;7.70;99.90;;;;;;5104809;28;20625;-47
2022/02/24 07:31:14;;;;;;;12.47;4.33;;;7.70;99.90;;;;;;5102122;28;20217;-47
2022/02/24 07:34:04;;;;;;;9.80;3.50;;;7.70;99.90;;;;;;5104445;28;20224;-47
2022/02/24 07:36:33;;;;;;;7.03;3.73;;;7.70;99.90;;;;;;5088669;28;20331;-44
2022/02/24 07:39:00;;;;;;;10.70;4.37;;;7.70;99.90;;;;;;5104413;28;20213;-47
2022/02/24 07:41:27;;;;;;;9.97;4.40;;;7.80;99.90;;;;;;5101483;28;20304;-51
2022/02/24 07:43:53;;;;;;;10.07;4.50;;;7.80;99.90;;;;;;5104961;28;20197;-46
2022/02/24 07:46:22;;;;;;;7.33;3.37;;;7.80;99.90;;;;;;5100784;28;20818;-45
2022/02/24 07:48:50;;;;;;;19.73;5.20;;;7.80;99.90;;;;;;5104909;28;20199;-49
2022/02/24 07:51:17;;;;;;;10.03;4.87;;;7.80;99.90;;;;;;5100803;28;20300;-45
2022/02/24 07:53:43;;;;;;;10.27;5.07;;;7.80;99.90;;;;;;5090126;28;20198;-43
2022/02/24 07:56:10;;;;;;;10.50;4.27;;;7.80;99.90;;;;;;5095350;28;20198;-44
2022/02/24 07:58:37;;;;;;;8.07;4.33;;;7.80;99.90;;;;;;5102778;28;20201;-46
2022/02/24 08:01:04;;;;;;;6.47;3.70;;;7.80;99.90;;;;;;5103431;28;20678;-48
2022/02/24 08:03:33;;;;;;;7.67;4.20;;;7.80;99.90;;;;;;5102262;28;20380;-46
2022/02/24 08:06:00;;;;;;;19.63;5.47;;;7.90;99.90;;;;;;5103772;28;20654;-44
2022/02/24 08:08:27;;;;;;;7.07;4.53;;;7.90;99.90;;;;;;5086610;28;20484;-47
2022/02/24 08:10:54;;;;;;;11.47;3.70;;;7.90;99.90;;;;;;5104280;28;20716;-45
2022/02/24 08:13:22;;;;;;;6.80;3.00;;;7.90;99.90;;;;;;5100692;28;20195;-44
2022/02/24 08:15:52;;;;;;;7.93;4.17;;;7.90;99.90;;;;;;5104432;28;20197;-45
2022/02/24 08:18:19;;;;;;;8.10;3.30;;;8.00;99.90;;;;;;5100577;28;20863;-43
2022/02/24 08:20:47;;;;;;;6.90;3.90;;;8.00;99.90;;;;;;5104417;28;20839;-45
2022/02/24 08:23:15;;;;;;;8.40;4.40;;;8.00;99.90;;;;;;5089165;28;20201;-45
2022/02/24 08:25:42;;;;;;;9.23;4.37;;;8.00;99.90;;;;;;5100158;28;20681;-49
2022/02/24 08:28:08;;;;;;;10.00;4.60;;;8.00;99.90;;;;;;5101797;28;20190;-45
2022/02/24 08:30:35;;;;;;;14.93;4.87;;;8.00;99.90;;;;;;5102958;28;20209;-46
2022/02/24 08:33:02;;;;;;;7.60;3.57;;;8.00;99.90;;;;;;5103505;28;20197;-46
2022/02/24 08:35:29;;;;;;;6.07;3.07;;;8.00;99.90;;;;;;5101206;28;20204;-48
2022/02/24 08:37:58;;;;;;;11.50;4.03;;;8.00;99.90;;;;;;5104024;28;20217;-44
2022/02/24 08:40:24;;;;;;;6.73;3.73;;;8.00;99.90;;;;;;5085732;28;20936;-44
2022/02/24 08:42:51;;;;;;;8.77;4.27;;;8.10;99.90;;;;;;5103857;28;20678;-43
2022/02/24 08:45:19;;;;;;;11.13;3.53;;;8.10;99.90;;;;;;5100205;28;20929;-45
2022/02/24 08:47:48;;;;;;;13.43;4.80;;;8.10;99.90;;;;;;5103865;28;20198;-44
2022/02/24 08:50:15;;;;;;;9.17;4.00;;;8.20;99.90;;;;;;5100522;28;20223;-44
2022/02/24 08:52:42;;;;;;;10.30;3.30;;;8.20;99.90;;;;;;5103734;28;20208;-44
2022/02/24 08:55:11;;;;;;;9.67;3.63;;;8.30;99.90;;;;;;5083372;28;20210;-45
2022/02/24 08:57:38;;;;;;;8.33;3.20;;;8.30;99.90;;;;;;5101782;28;20858;-44
2022/02/24 09:00:06;;;;;;;10.33;3.83;;;8.40;99.90;;;;;;5102105;28;20213;-48
2022/02/24 09:02:33;;;;;;;6.77;2.90;;;8.40;99.90;;;;;;5101805;28;20966;-45
2022/02/24 09:05:00;;;;;;;9.97;4.10;;;8.50;99.90;;;;;;5103254;28;20197;-47
2022/02/24 09:07:27;;;;;;;9.60;3.70;;;8.50;99.90;;;;;;5100356;28;20189;-44
2022/02/24 09:09:54;;;;;;;6.97;3.23;;;8.50;99.90;;;;;;5103862;28;20282;-44
2022/02/24 09:12:22;;;;;;;7.77;3.10;;;8.60;99.90;;;;;;5084706;28;20189;-45
2022/02/24 09:14:49;;;;;;;7.10;3.03;;;8.60;99.90;;;;;;5103563;28;20197;-46
2022/02/24 09:17:15;;;;;;;7.30;2.83;;;8.60;99.90;;;;;;5099456;28;20193;-49
2022/02/24 09:19:43;;;;;;;5.60;3.00;;;8.70;99.90;;;;;;5103340;28;20231;-46
2022/02/24 09:22:11;;;;;;;9.80;2.57;;;8.70;99.90;;;;;;5101063;28;20251;-46
2022/02/24 09:24:38;;;;;;;8.57;3.30;;;8.80;99.90;;;;;;5102519;28;20709;-46
2022/02/24 09:27:05;;;;;;;9.73;3.90;;;8.80;99.90;;;;;;5086522;28;20208;-46
2022/02/24 09:29:33;;;;;;;7.23;2.97;;;8.80;99.90;;;;;;5101225;28;20216;-48
2022/02/24 09:32:00;;;;;;;5.97;2.50;;;8.80;99.90;;;;;;5102862;28;20192;-48
2022/02/24 09:34:27;;;;;;;7.10;2.77;;;8.90;99.90;;;;;;5099880;28;20203;-45
2022/02/24 09:36:53;;;;;;;5.40;2.80;;;8.90;99.90;;;;;;5102946;28;20276;-48
2022/02/24 09:39:20;;;;;;;5.77;2.67;;;8.80;99.90;;;;;;5099004;28;20189;-46
2022/02/24 09:41:47;;;;;;;9.77;3.23;;;8.80;99.90;;;;;;5088754;28;20217;-44
2022/02/24 09:44:14;;;;;;;7.97;3.63;;;8.90;99.90;;;;;;5099231;28;20205;-44
2022/02/24 09:46:42;;;;;;;9.13;3.20;;;8.90;99.90;;;;;;5102553;28;20275;-44
2022/02/24 09:49:10;;;;;;;8.70;3.70;;;9.00;99.90;;;;;;5100833;28;20201;-45
2022/02/24 09:51:38;;;;;;;9.10;3.80;;;9.10;99.90;;;;;;5102248;28;20266;-45
2022/02/24 09:54:05;;;;;;;8.23;3.03;;;9.20;99.90;;;;;;5101635;28;20201;-46
2022/02/24 09:56:31;;;;;;;10.23;2.93;;;9.30;99.90;;;;;;5082788;28;20484;-47
2022/02/24 09:59:00;;;;;;;7.77;3.03;;;9.40;99.90;;;;;;5102894;28;20205;-44
2022/02/24 10:01:27;;;;;;;8.80;3.57;;;9.40;99.90;;;;;;5099461;28;20500;-49
2022/02/24 10:03:57;;;;;;;14.43;5.50;;;9.30;99.90;;;;;;5103052;28;20204;-44
2022/02/24 10:06:34;;;;;;;10.10;3.57;;;9.30;99.90;;;;;;5098920;28;20208;-44
2022/02/24 10:09:00;;;;;;;5.60;2.13;;;9.40;99.90;;;;;;5096451;28;20201;-45
2022/02/24 10:11:28;;;;;;;3.57;1.87;;;9.50;99.90;;;;;;5085004;28;20221;-45
2022/02/24 10:13:59;;;;;;;19.67;2.90;;;9.50;99.90;;;;;;5102613;28;20558;-45
2022/02/24 10:16:26;;;;;;;5.57;2.27;;;9.50;99.90;;;;;;5099204;28;20648;-50
2022/02/24 10:18:52;;;;;;;6.13;2.00;;;9.50;99.90;;;;;;5103258;28;20202;-45
2022/02/24 10:21:21;;;;;;;4.60;1.80;;;9.50;99.90;;;;;;5098702;28;20882;-45
2022/02/24 10:23:49;;;;;;;12.87;2.30;;;9.50;99.90;;;;;;5102790;28;20291;-47
2022/02/24 10:26:18;;;;;;;7.60;2.03;;;9.50;99.90;;;;;;5093238;28;20236;-45
2022/02/24 10:28:47;;;;;;;5.53;2.20;;;9.60;99.90;;;;;;5088740;28;20284;-45
2022/02/24 10:31:15;;;;;;;12.23;3.73;;;9.70;99.90;;;;;;5099561;28;20558;-50
2022/02/24 10:33:43;;;;;;;6.17;2.90;;;9.70;99.90;;;;;;5102485;28;20225;-44
2022/02/24 10:36:14;;;;;;;9.83;3.53;;;9.80;99.90;;;;;;5100317;28;20204;-47
2022/02/24 10:38:43;;;;;;;6.53;2.97;;;9.80;99.90;;;;;;5102265;28;20595;-47
2022/02/24 10:41:10;;;;;;;4.20;3.40;;;9.60;99.90;;;;;;5100335;28;20229;-49
2022/02/24 10:43:39;;;;;;;5.53;2.70;;;9.70;99.90;;;;;;5087373;28;20424;-47
2022/02/24 10:46:08;;;;;;;5.30;1.90;;;9.80;99.90;;;;;;5102902;28;20197;-47
2022/02/24 10:48:50;;;;;;;7.90;2.83;;;9.90;99.90;;;;;;5104765;28;20272;-48
2022/02/24 10:51:25;;;;;;;8.50;4.30;;;10.00;99.90;;;;;;5102514;28;20248;-49
2022/02/24 10:54:04;;;;;;;10.70;3.63;;;10.10;99.90;;;;;;5106392;28;20208;-49
2022/02/24 10:56:32;;;;;;;4.67;2.10;;;10.00;99.90;;;;;;5096904;28;20219;-47
2022/02/24 10:58:59;;;;;;;8.13;3.97;;;9.90;99.90;;;;;;5089993;28;20209;-47
2022/02/24 11:01:28;;;;;;;6.10;2.50;;;9.90;99.90;;;;;;5101847;28;20724;-48
2022/02/24 11:03:56;;;;;;;7.80;3.50;;;9.90;99.90;;;;;;5106040;28;20280;-45
2022/02/24 11:06:25;;;;;;;5.10;2.57;;;9.80;99.90;;;;;;5101669;28;20316;-45
2022/02/24 11:08:53;;;;;;;6.70;3.80;;;9.80;99.90;;;;;;5105930;28;20200;-46
2022/02/24 11:11:23;;;;;;;9.73;2.90;;;9.80;99.90;;;;;;5101744;28;21007;-50
2022/02/24 11:13:50;;;;;;;6.37;2.83;;;9.70;99.90;;;;;;5105864;28;20204;-44
2022/02/24 11:16:18;;;;;;;4.90;3.30;;;9.70;99.90;;;;;;5086671;28;20291;-46
2022/02/24 11:18:46;;;;;;;9.43;3.63;;;9.70;99.90;;;;;;5105690;28;20603;-44
2022/02/24 11:21:14;;;;;;;6.23;2.87;;;9.70;99.90;;;;;;5102480;28;20221;-44
2022/02/24 11:23:42;;;;;;;6.90;2.60;;;9.80;99.90;;;;;;5105491;28;20276;-46
2022/02/24 11:26:35;;;;;;;7.67;2.50;;;9.80;99.90;;;;;;5099339;28;20190;-50
2022/02/24 11:29:18;;;;;;;8.47;2.93;;;9.90;99.90;;;;;;5103494;28;20577;-45
2022/02/24 11:31:55;;;;;;;7.40;2.33;;;9.90;99.90;;;;;;5085591;28;20208;-50
2022/02/24 11:35:00;;;;;;;9.80;3.47;;;9.90;99.90;;;;;;5101140;28;20212;-45
2022/02/24 11:37:29;;;;;;;5.40;2.17;;;9.90;99.90;;;;;;5101491;27;20209;-46
2022/02/24 11:39:58;;;;;;;7.57;4.27;;;9.90;99.90;;;;;;5105169;28;20213;-44
2022/02/24 11:42:28;;;;;;;8.67;3.67;;;9.90;99.90;;;;;;5101523;28;20753;-48
2022/02/24 11:44:56;;;;;;;6.13;2.73;;;9.90;99.90;;;;;;5105143;28;20685;-46
2022/02/24 11:47:23;;;;;;;5.13;3.30;;;10.00;99.90;;;;;;5086054;28;20197;-46
2022/02/24 11:50:08;;;;;;;5.90;3.07;;;10.00;99.90;;;;;;5104952;28;20252;-43
2022/02/24 11:52:47;;;;;;;8.83;4.40;;;10.00;99.90;;;;;;5103382;28;20390;-44
2022/02/24 11:55:45;;;;;;;10.40;3.73;;;10.00;99.90;;;;;;5097405;28;20198;-45
2022/02/24 11:58:50;;;;;;;7.27;2.60;;;9.90;99.90;;;;;;5097624;28;20212;-46
2022/02/24 12:01:24;;;;;;;8.07;2.60;;;9.90;99.90;;;;;;5087044;28;20231;-44
2022/02/24 12:04:29;;;;;;;8.33;4.30;;;9.90;99.90;;;;;;5103556;28;20194;-47
2022/02/24 12:06:58;;;;;;;8.60;2.80;;;10.00;99.90;;;;;;5104415;28;20197;-46
2022/02/24 12:09:31;;;;;;;7.07;3.37;;;10.10;99.90;;;;;;5100942;28;20189;-44
2022/02/24 12:12:00;;;;;;;4.50;2.77;;;10.20;99.90;;;;;;5104630;28;20283;-44
2022/02/24 12:14:54;;;;;;;6.23;2.93;;;10.30;99.90;;;;;;5101321;28;20915;-46
2022/02/24 12:17:23;;;;;;;5.37;3.37;;;10.50;99.90;;;;;;5085963;28;20376;-47
2022/02/24 12:19:53;;;;;;;8.93;2.80;;;10.60;99.90;;;;;;5104137;28;20270;-44
2022/02/24 12:22:23;;;;;;;6.90;2.67;;;10.60;99.90;;;;;;5100107;28;20217;-45
2022/02/24 12:24:51;;;;;;;6.27;2.53;;;10.50;99.90;;;;;;5103139;28;20223;-45
2022/02/24 12:27:33;;;;;;;5.30;3.43;;;10.40;99.90;;;;;;5099308;28;20989;-44
2022/02/24 12:30:14;;;;;;;6.30;2.83;;;10.30;99.90;;;;;;5103915;28;20244;-48
2022/02/24 12:32:47;;;;;;;6.03;3.20;;;10.40;99.90;;;;;;5104043;28;20666;-45
2022/02/24 12:35:16;;;;;;;6.30;3.57;;;10.40;99.90;;;;;;5086000;28;20209;-44
2022/02/24 12:37:44;;;;;;;8.80;3.30;;;10.40;99.90;;;;;;5103590;28;20220;-45
2022/02/24 12:40:17;;;;;;;9.37;3.60;;;10.40;99.90;;;;;;5101288;28;20217;-47
2022/02/24 12:42:45;;;;;;;7.40;3.70;;;10.30;99.90;;;;;;5104018;28;20221;-46
2022/02/24 12:45:17;;;;;;;7.33;3.30;;;10.30;99.90;;;;;;5100973;28;20205;-44
2022/02/24 12:47:44;;;;;;;9.43;2.93;;;10.30;99.90;;;;;;5103703;28;20197;-44
2022/02/24 12:50:11;;;;;;;7.43;2.57;;;10.30;99.90;;;;;;5086581;28;20217;-43
2022/02/24 12:52:39;;;;;;;9.37;3.63;;;10.20;99.90;;;;;;5102969;28;20189;-44
2022/02/24 12:55:07;;;;;;;6.63;2.87;;;10.20;99.90;;;;;;5098709;28;20206;-49
2022/02/24 12:57:33;;;;;;;3.20;2.50;;;10.00;99.90;;;;;;5100444;28;20196;-44
2022/02/24 13:00:00;;;;;;;9.90;4.37;;;10.00;99.90;;;;;;5103230;28;20686;-44
2022/02/24 13:02:28;;;;;;;6.10;2.50;;;10.00;99.90;;;;;;5100641;28;20219;-43